sensor_id;sensor_type;location;lat;lon;timestamp;P1;durP1;ratioP1;P2;durP2;ratioP2
82415;SDS011;72058;47.782;10.618;2023-12-20T00:00:53;5.80;;;5.27;;
82415;SDS011;72058;47.782;10.618;2023-12-20T00:03:18;6.70;;;5.30;;
82415;SDS011;72058;47.782;10.618;2023-12-20T00:05:44;6.47;;;5.87;;
82415;SDS011;72058;47.782;10.618;2023-12-20T00:08:09;4.88;;;4.47;;
82415;SDS011;72058;47.782;10.618;2023-12-20T00:10:34;5.05;;;4.13;;
82415;SDS011;72058;47.782;10.618;2023-12-20T00:13:00;4.97;;;4.43;;
82415;SDS011;72058;47.782;10.618;2023-12-20T00:15:25;6.13;;;5.57;;
82415;SDS011;72058;47.782;10.618;2023-12-20T00:17:50;5.60;;;4.93;;
82415;SDS011;72058;47.782;10.618;2023-12-20T00:20:16;5.55;;;4.95;;
82415;SDS011;72058;47.782;10.618;2023-12-20T00:22:41;5.47;;;4.97;;
82415;SDS011;72058;47.782;10.618;2023-12-20T00:25:07;5.60;;;5.07;;
82415;SDS011;72058;47.782;10.618;2023-12-20T00:27:32;6.10;;;4.90;;
82415;SDS011;72058;47.782;10.618;2023-12-20T00:29:58;6.17;;;5.50;;
82415;SDS011;72058;47.782;10.618;2023-12-20T00:32:23;4.90;;;4.43;;
82415;SDS011;72058;47.782;10.618;2023-12-20T00:34:48;5.80;;;5.20;;
82415;SDS011;72058;47.782;10.618;2023-12-20T00:37:14;5.15;;;4.65;;
82415;SDS011;72058;47.782;10.618;2023-12-20T00:39:39;5.47;;;4.30;;
82415;SDS011;72058;47.782;10.618;2023-12-20T00:42:04;5.33;;;4.83;;
82415;SDS011;72058;47.782;10.618;2023-12-20T00:44:30;5.20;;;4.30;;
82415;SDS011;72058;47.782;10.618;2023-12-20T00:46:55;4.47;;;3.63;;
82415;SDS011;72058;47.782;10.618;2023-12-20T00:49:20;5.50;;;4.60;;
82415;SDS011;72058;47.782;10.618;2023-12-20T00:51:46;4.00;;;3.67;;
82415;SDS011;72058;47.782;10.618;2023-12-20T00:54:12;4.55;;;4.15;;
82415;SDS011;72058;47.782;10.618;2023-12-20T00:56:38;5.25;;;4.78;;
82415;SDS011;72058;47.782;10.618;2023-12-20T00:59:04;4.83;;;4.43;;
82415;SDS011;72058;47.782;10.618;2023-12-20T01:01:29;4.67;;;3.57;;
82415;SDS011;72058;47.782;10.618;2023-12-20T01:03:54;4.30;;;3.90;;
82415;SDS011;72058;47.782;10.618;2023-12-20T01:06:20;4.88;;;4.47;;
82415;SDS011;72058;47.782;10.618;2023-12-20T01:08:45;3.55;;;3.25;;
82415;SDS011;72058;47.782;10.618;2023-12-20T01:11:11;4.57;;;4.17;;
82415;SDS011;72058;47.782;10.618;2023-12-20T01:13:36;5.07;;;4.60;;
82415;SDS011;72058;47.782;10.618;2023-12-20T01:16:02;4.28;;;3.88;;
82415;SDS011;72058;47.782;10.618;2023-12-20T01:18:27;4.72;;;4.13;;
82415;SDS011;72058;47.782;10.618;2023-12-20T01:20:53;4.53;;;4.13;;
82415;SDS011;72058;47.782;10.618;2023-12-20T01:23:18;4.45;;;3.75;;
82415;SDS011;72058;47.782;10.618;2023-12-20T01:25:44;4.30;;;3.92;;
82415;SDS011;72058;47.782;10.618;2023-12-20T01:28:09;4.32;;;3.92;;
82415;SDS011;72058;47.782;10.618;2023-12-20T01:30:34;3.90;;;3.60;;
82415;SDS011;72058;47.782;10.618;2023-12-20T01:33:01;4.88;;;3.38;;
82415;SDS011;72058;47.782;10.618;2023-12-20T01:35:26;3.10;;;2.73;;
82415;SDS011;72058;47.782;10.618;2023-12-20T01:37:52;4.90;;;3.75;;
82415;SDS011;72058;47.782;10.618;2023-12-20T01:40:21;2.63;;;2.42;;
82415;SDS011;72058;47.782;10.618;2023-12-20T01:42:47;4.07;;;3.65;;
82415;SDS011;72058;47.782;10.618;2023-12-20T01:45:12;3.80;;;3.50;;
82415;SDS011;72058;47.782;10.618;2023-12-20T01:47:37;2.60;;;2.40;;
82415;SDS011;72058;47.782;10.618;2023-12-20T01:50:03;3.83;;;3.53;;
82415;SDS011;72058;47.782;10.618;2023-12-20T01:52:29;5.40;;;5.00;;
82415;SDS011;72058;47.782;10.618;2023-12-20T01:54:54;3.85;;;3.55;;
82415;SDS011;72058;47.782;10.618;2023-12-20T01:57:26;3.50;;;3.15;;
82415;SDS011;72058;47.782;10.618;2023-12-20T01:59:52;3.50;;;3.20;;
82415;SDS011;72058;47.782;10.618;2023-12-20T02:02:17;3.92;;;3.55;;
82415;SDS011;72058;47.782;10.618;2023-12-20T02:04:43;3.13;;;2.83;;
82415;SDS011;72058;47.782;10.618;2023-12-20T02:07:08;4.25;;;3.85;;
82415;SDS011;72058;47.782;10.618;2023-12-20T02:09:34;3.55;;;3.15;;
82415;SDS011;72058;47.782;10.618;2023-12-20T02:12:00;4.32;;;3.92;;
82415;SDS011;72058;47.782;10.618;2023-12-20T02:14:25;4.43;;;4.00;;
82415;SDS011;72058;47.782;10.618;2023-12-20T02:16:51;2.83;;;2.63;;
82415;SDS011;72058;47.782;10.618;2023-12-20T02:19:16;4.10;;;3.70;;
82415;SDS011;72058;47.782;10.618;2023-12-20T02:21:42;4.63;;;4.25;;
82415;SDS011;72058;47.782;10.618;2023-12-20T02:24:08;5.43;;;5.03;;
82415;SDS011;72058;47.782;10.618;2023-12-20T02:26:33;3.83;;;3.53;;
82415;SDS011;72058;47.782;10.618;2023-12-20T02:28:59;4.72;;;4.32;;
82415;SDS011;72058;47.782;10.618;2023-12-20T02:31:25;4.25;;;3.83;;
82415;SDS011;72058;47.782;10.618;2023-12-20T02:33:50;3.85;;;3.55;;
82415;SDS011;72058;47.782;10.618;2023-12-20T02:36:15;3.50;;;3.20;;
82415;SDS011;72058;47.782;10.618;2023-12-20T02:38:41;3.63;;;3.33;;
82415;SDS011;72058;47.782;10.618;2023-12-20T02:41:06;2.87;;;2.63;;
82415;SDS011;72058;47.782;10.618;2023-12-20T02:43:31;2.77;;;2.50;;
82415;SDS011;72058;47.782;10.618;2023-12-20T02:45:57;3.53;;;3.20;;
82415;SDS011;72058;47.782;10.618;2023-12-20T02:48:22;4.50;;;3.80;;
82415;SDS011;72058;47.782;10.618;2023-12-20T02:50:47;4.10;;;3.80;;
82415;SDS011;72058;47.782;10.618;2023-12-20T02:53:14;4.00;;;3.60;;
82415;SDS011;72058;47.782;10.618;2023-12-20T02:55:39;4.57;;;4.18;;
82415;SDS011;72058;47.782;10.618;2023-12-20T02:58:05;4.65;;;4.25;;
82415;SDS011;72058;47.782;10.618;2023-12-20T03:00:30;4.33;;;3.87;;
82415;SDS011;72058;47.782;10.618;2023-12-20T03:02:55;5.23;;;4.60;;
82415;SDS011;72058;47.782;10.618;2023-12-20T03:05:21;4.30;;;3.90;;
82415;SDS011;72058;47.782;10.618;2023-12-20T03:07:46;3.27;;;2.97;;
82415;SDS011;72058;47.782;10.618;2023-12-20T03:10:11;4.28;;;3.92;;
82415;SDS011;72058;47.782;10.618;2023-12-20T03:12:37;4.77;;;4.30;;
82415;SDS011;72058;47.782;10.618;2023-12-20T03:15:02;4.33;;;4.03;;
82415;SDS011;72058;47.782;10.618;2023-12-20T03:17:27;4.32;;;4.03;;
82415;SDS011;72058;47.782;10.618;2023-12-20T03:19:53;4.32;;;3.92;;
82415;SDS011;72058;47.782;10.618;2023-12-20T03:22:18;4.00;;;3.67;;
82415;SDS011;72058;47.782;10.618;2023-12-20T03:24:43;4.15;;;3.75;;
82415;SDS011;72058;47.782;10.618;2023-12-20T03:27:09;3.63;;;3.33;;
82415;SDS011;72058;47.782;10.618;2023-12-20T03:29:34;4.77;;;3.73;;
82415;SDS011;72058;47.782;10.618;2023-12-20T03:31:59;3.93;;;3.63;;
82415;SDS011;72058;47.782;10.618;2023-12-20T03:34:25;4.43;;;3.67;;
82415;SDS011;72058;47.782;10.618;2023-12-20T03:41:42;3.83;;;3.53;;
82415;SDS011;72058;47.782;10.618;2023-12-20T03:44:07;4.15;;;3.85;;
82415;SDS011;72058;47.782;10.618;2023-12-20T03:46:33;6.60;;;4.05;;
82415;SDS011;72058;47.782;10.618;2023-12-20T03:48:58;4.43;;;4.10;;
82415;SDS011;72058;47.782;10.618;2023-12-20T03:51:23;3.77;;;3.40;;
82415;SDS011;72058;47.782;10.618;2023-12-20T03:53:49;5.03;;;4.17;;
82415;SDS011;72058;47.782;10.618;2023-12-20T03:56:14;3.07;;;2.60;;
82415;SDS011;72058;47.782;10.618;2023-12-20T03:58:39;4.53;;;3.95;;
82415;SDS011;72058;47.782;10.618;2023-12-20T04:01:09;3.75;;;3.45;;
82415;SDS011;72058;47.782;10.618;2023-12-20T04:03:36;4.00;;;3.60;;
82415;SDS011;72058;47.782;10.618;2023-12-20T04:06:01;5.07;;;4.67;;
82415;SDS011;72058;47.782;10.618;2023-12-20T04:08:26;3.90;;;3.60;;
82415;SDS011;72058;47.782;10.618;2023-12-20T04:10:52;4.07;;;3.67;;
82415;SDS011;72058;47.782;10.618;2023-12-20T04:13:17;3.80;;;3.50;;
82415;SDS011;72058;47.782;10.618;2023-12-20T04:15:42;4.30;;;3.67;;
82415;SDS011;72058;47.782;10.618;2023-12-20T04:18:08;4.85;;;4.45;;
82415;SDS011;72058;47.782;10.618;2023-12-20T04:20:33;3.37;;;3.07;;
82415;SDS011;72058;47.782;10.618;2023-12-20T04:22:58;4.27;;;3.87;;
82415;SDS011;72058;47.782;10.618;2023-12-20T04:25:24;4.90;;;4.47;;
82415;SDS011;72058;47.782;10.618;2023-12-20T04:27:50;4.38;;;4.00;;
82415;SDS011;72058;47.782;10.618;2023-12-20T04:30:15;4.47;;;4.07;;
82415;SDS011;72058;47.782;10.618;2023-12-20T04:32:40;4.43;;;4.03;;
82415;SDS011;72058;47.782;10.618;2023-12-20T04:35:06;4.33;;;3.93;;
82415;SDS011;72058;47.782;10.618;2023-12-20T04:37:33;4.60;;;3.85;;
82415;SDS011;72058;47.782;10.618;2023-12-20T04:39:58;4.55;;;4.15;;
82415;SDS011;72058;47.782;10.618;2023-12-20T04:42:24;5.30;;;4.87;;
82415;SDS011;72058;47.782;10.618;2023-12-20T04:44:49;4.40;;;4.00;;
82415;SDS011;72058;47.782;10.618;2023-12-20T04:47:14;4.93;;;4.43;;
82415;SDS011;72058;47.782;10.618;2023-12-20T04:49:40;4.30;;;3.97;;
82415;SDS011;72058;47.782;10.618;2023-12-20T04:52:05;5.03;;;4.53;;
82415;SDS011;72058;47.782;10.618;2023-12-20T04:54:30;4.97;;;4.25;;
82415;SDS011;72058;47.782;10.618;2023-12-20T04:56:56;4.88;;;4.47;;
82415;SDS011;72058;47.782;10.618;2023-12-20T04:59:21;4.37;;;3.93;;
82415;SDS011;72058;47.782;10.618;2023-12-20T05:01:47;4.23;;;3.90;;
82415;SDS011;72058;47.782;10.618;2023-12-20T05:04:12;5.30;;;4.97;;
82415;SDS011;72058;47.782;10.618;2023-12-20T05:06:37;4.87;;;4.37;;
82415;SDS011;72058;47.782;10.618;2023-12-20T05:09:03;4.53;;;4.13;;
82415;SDS011;72058;47.782;10.618;2023-12-20T05:11:28;4.87;;;4.47;;
82415;SDS011;72058;47.782;10.618;2023-12-20T05:13:54;5.17;;;4.40;;
82415;SDS011;72058;47.782;10.618;2023-12-20T05:16:19;4.93;;;4.33;;
82415;SDS011;72058;47.782;10.618;2023-12-20T05:18:45;4.97;;;4.53;;
82415;SDS011;72058;47.782;10.618;2023-12-20T05:21:10;5.63;;;5.13;;
82415;SDS011;72058;47.782;10.618;2023-12-20T05:23:36;5.90;;;5.40;;
82415;SDS011;72058;47.782;10.618;2023-12-20T05:26:01;6.00;;;5.47;;
82415;SDS011;72058;47.782;10.618;2023-12-20T05:28:26;5.22;;;4.78;;
82415;SDS011;72058;47.782;10.618;2023-12-20T05:30:52;4.23;;;3.83;;
82415;SDS011;72058;47.782;10.618;2023-12-20T05:33:17;5.25;;;4.82;;
82415;SDS011;72058;47.782;10.618;2023-12-20T05:35:42;5.53;;;5.03;;
82415;SDS011;72058;47.782;10.618;2023-12-20T05:38:08;5.25;;;4.85;;
82415;SDS011;72058;47.782;10.618;2023-12-20T05:40:34;6.03;;;5.53;;
82415;SDS011;72058;47.782;10.618;2023-12-20T05:42:59;4.47;;;4.07;;
82415;SDS011;72058;47.782;10.618;2023-12-20T05:45:24;5.20;;;4.78;;
82415;SDS011;72058;47.782;10.618;2023-12-20T05:47:50;5.45;;;4.95;;
82415;SDS011;72058;47.782;10.618;2023-12-20T05:50:15;5.67;;;5.03;;
82415;SDS011;72058;47.782;10.618;2023-12-20T05:52:40;5.07;;;4.67;;
82415;SDS011;72058;47.782;10.618;2023-12-20T05:55:06;5.10;;;4.70;;
82415;SDS011;72058;47.782;10.618;2023-12-20T05:57:31;5.43;;;4.95;;
82415;SDS011;72058;47.782;10.618;2023-12-20T05:59:57;4.43;;;4.03;;
82415;SDS011;72058;47.782;10.618;2023-12-20T06:02:22;5.38;;;4.45;;
82415;SDS011;72058;47.782;10.618;2023-12-20T06:04:48;5.15;;;4.65;;
82415;SDS011;72058;47.782;10.618;2023-12-20T06:07:13;5.53;;;5.03;;
82415;SDS011;72058;47.782;10.618;2023-12-20T06:09:39;5.90;;;5.32;;
82415;SDS011;72058;47.782;10.618;2023-12-20T06:12:04;6.60;;;5.28;;
82415;SDS011;72058;47.782;10.618;2023-12-20T06:14:30;6.70;;;5.90;;
82415;SDS011;72058;47.782;10.618;2023-12-20T06:16:58;6.10;;;5.50;;
82415;SDS011;72058;47.782;10.618;2023-12-20T06:19:23;6.07;;;5.57;;
82415;SDS011;72058;47.782;10.618;2023-12-20T06:21:49;5.53;;;5.00;;
82415;SDS011;72058;47.782;10.618;2023-12-20T06:24:14;5.10;;;4.43;;
82415;SDS011;72058;47.782;10.618;2023-12-20T06:26:39;5.30;;;4.80;;
82415;SDS011;72058;47.782;10.618;2023-12-20T06:29:05;3.47;;;3.17;;
82415;SDS011;72058;47.782;10.618;2023-12-20T06:31:30;4.97;;;4.60;;
82415;SDS011;72058;47.782;10.618;2023-12-20T06:33:57;4.53;;;4.13;;
82415;SDS011;72058;47.782;10.618;2023-12-20T06:38:50;4.70;;;4.40;;
82415;SDS011;72058;47.782;10.618;2023-12-20T06:41:15;4.20;;;3.90;;
82415;SDS011;72058;47.782;10.618;2023-12-20T06:43:41;4.40;;;4.07;;
82415;SDS011;72058;47.782;10.618;2023-12-20T06:46:07;3.72;;;3.42;;
82415;SDS011;72058;47.782;10.618;2023-12-20T06:48:32;4.03;;;3.72;;
82415;SDS011;72058;47.782;10.618;2023-12-20T06:50:59;4.07;;;3.73;;
82415;SDS011;72058;47.782;10.618;2023-12-20T06:53:25;5.05;;;4.07;;
82415;SDS011;72058;47.782;10.618;2023-12-20T06:55:50;4.60;;;4.23;;
82415;SDS011;72058;47.782;10.618;2023-12-20T06:58:16;4.67;;;4.27;;
82415;SDS011;72058;47.782;10.618;2023-12-20T07:00:41;3.92;;;3.63;;
82415;SDS011;72058;47.782;10.618;2023-12-20T07:03:07;4.15;;;3.75;;
82415;SDS011;72058;47.782;10.618;2023-12-20T07:05:32;4.67;;;4.30;;
82415;SDS011;72058;47.782;10.618;2023-12-20T07:07:58;4.50;;;4.20;;
82415;SDS011;72058;47.782;10.618;2023-12-20T07:10:23;4.18;;;3.88;;
82415;SDS011;72058;47.782;10.618;2023-12-20T07:12:49;4.23;;;3.83;;
82415;SDS011;72058;47.782;10.618;2023-12-20T07:15:16;4.07;;;3.80;;
82415;SDS011;72058;47.782;10.618;2023-12-20T07:17:41;3.83;;;3.53;;
82415;SDS011;72058;47.782;10.618;2023-12-20T07:20:07;2.85;;;2.65;;
82415;SDS011;72058;47.782;10.618;2023-12-20T07:22:35;4.00;;;3.70;;
82415;SDS011;72058;47.782;10.618;2023-12-20T07:25:01;4.47;;;4.18;;
82415;SDS011;72058;47.782;10.618;2023-12-20T07:27:26;3.78;;;3.47;;
82415;SDS011;72058;47.782;10.618;2023-12-20T07:29:52;2.83;;;2.30;;
82415;SDS011;72058;47.782;10.618;2023-12-20T07:32:17;3.08;;;2.88;;
82415;SDS011;72058;47.782;10.618;2023-12-20T07:34:43;2.63;;;2.42;;
82415;SDS011;72058;47.782;10.618;2023-12-20T07:37:09;2.00;;;1.90;;
82415;SDS011;72058;47.782;10.618;2023-12-20T07:39:39;2.60;;;2.40;;
82415;SDS011;72058;47.782;10.618;2023-12-20T07:42:05;4.07;;;3.05;;
82415;SDS011;72058;47.782;10.618;2023-12-20T07:44:30;3.63;;;3.42;;
82415;SDS011;72058;47.782;10.618;2023-12-20T07:46:56;2.55;;;2.30;;
82415;SDS011;72058;47.782;10.618;2023-12-20T07:49:22;3.75;;;3.42;;
82415;SDS011;72058;47.782;10.618;2023-12-20T07:51:48;3.88;;;3.58;;
82415;SDS011;72058;47.782;10.618;2023-12-20T07:54:13;4.57;;;4.27;;
82415;SDS011;72058;47.782;10.618;2023-12-20T07:56:38;4.27;;;3.97;;
82415;SDS011;72058;47.782;10.618;2023-12-20T07:59:05;4.30;;;3.63;;
82415;SDS011;72058;47.782;10.618;2023-12-20T08:01:30;6.78;;;6.25;;
82415;SDS011;72058;47.782;10.618;2023-12-20T08:03:56;3.13;;;2.92;;
82415;SDS011;72058;47.782;10.618;2023-12-20T08:06:22;4.50;;;4.20;;
82415;SDS011;72058;47.782;10.618;2023-12-20T08:08:47;3.30;;;3.00;;
82415;SDS011;72058;47.782;10.618;2023-12-20T08:11:12;3.42;;;3.22;;
82415;SDS011;72058;47.782;10.618;2023-12-20T08:13:38;3.67;;;3.37;;
82415;SDS011;72058;47.782;10.618;2023-12-20T08:16:03;4.10;;;3.80;;
82415;SDS011;72058;47.782;10.618;2023-12-20T08:18:29;2.88;;;2.67;;
82415;SDS011;72058;47.782;10.618;2023-12-20T08:20:54;3.22;;;3.03;;
82415;SDS011;72058;47.782;10.618;2023-12-20T08:23:20;2.60;;;2.47;;
82415;SDS011;72058;47.782;10.618;2023-12-20T08:25:46;3.03;;;2.83;;
82415;SDS011;72058;47.782;10.618;2023-12-20T08:28:11;3.03;;;2.83;;
82415;SDS011;72058;47.782;10.618;2023-12-20T08:30:37;3.42;;;3.13;;
82415;SDS011;72058;47.782;10.618;2023-12-20T08:33:02;2.67;;;2.47;;
82415;SDS011;72058;47.782;10.618;2023-12-20T08:35:28;3.05;;;2.85;;
82415;SDS011;72058;47.782;10.618;2023-12-20T08:37:53;2.60;;;2.40;;
82415;SDS011;72058;47.782;10.618;2023-12-20T08:40:18;2.67;;;2.55;;
82415;SDS011;72058;47.782;10.618;2023-12-20T08:42:45;2.58;;;2.38;;
82415;SDS011;72058;47.782;10.618;2023-12-20T08:45:10;3.93;;;3.60;;
82415;SDS011;72058;47.782;10.618;2023-12-20T08:47:36;1.98;;;1.88;;
82415;SDS011;72058;47.782;10.618;2023-12-20T08:50:02;2.77;;;2.67;;
82415;SDS011;72058;47.782;10.618;2023-12-20T08:52:28;3.50;;;3.30;;
82415;SDS011;72058;47.782;10.618;2023-12-20T08:54:54;3.25;;;3.05;;
82415;SDS011;72058;47.782;10.618;2023-12-20T08:57:20;3.05;;;2.85;;
82415;SDS011;72058;47.782;10.618;2023-12-20T08:59:49;2.72;;;2.53;;
82415;SDS011;72058;47.782;10.618;2023-12-20T09:02:15;3.10;;;2.78;;
82415;SDS011;72058;47.782;10.618;2023-12-20T09:04:41;3.03;;;2.83;;
82415;SDS011;72058;47.782;10.618;2023-12-20T09:07:07;2.90;;;2.70;;
82415;SDS011;72058;47.782;10.618;2023-12-20T09:09:32;3.90;;;3.70;;
82415;SDS011;72058;47.782;10.618;2023-12-20T09:11:58;3.92;;;3.67;;
82415;SDS011;72058;47.782;10.618;2023-12-20T09:14:24;2.65;;;2.53;;
82415;SDS011;72058;47.782;10.618;2023-12-20T09:16:49;3.53;;;3.33;;
82415;SDS011;72058;47.782;10.618;2023-12-20T09:19:16;3.00;;;2.80;;
82415;SDS011;72058;47.782;10.618;2023-12-20T09:21:42;3.33;;;3.13;;
82415;SDS011;72058;47.782;10.618;2023-12-20T09:24:08;2.10;;;1.95;;
82415;SDS011;72058;47.782;10.618;2023-12-20T09:26:34;3.43;;;3.23;;
82415;SDS011;72058;47.782;10.618;2023-12-20T09:28:59;2.80;;;2.60;;
82415;SDS011;72058;47.782;10.618;2023-12-20T09:31:24;3.08;;;2.88;;
82415;SDS011;72058;47.782;10.618;2023-12-20T09:33:50;3.40;;;3.17;;
82415;SDS011;72058;47.782;10.618;2023-12-20T09:36:15;1.90;;;1.80;;
82415;SDS011;72058;47.782;10.618;2023-12-20T09:38:40;2.97;;;2.77;;
82415;SDS011;72058;47.782;10.618;2023-12-20T09:41:07;3.55;;;3.35;;
82415;SDS011;72058;47.782;10.618;2023-12-20T09:43:32;3.05;;;2.85;;
82415;SDS011;72058;47.782;10.618;2023-12-20T09:46:05;3.13;;;2.92;;
82415;SDS011;72058;47.782;10.618;2023-12-20T09:48:32;2.97;;;2.78;;
82415;SDS011;72058;47.782;10.618;2023-12-20T09:50:57;2.67;;;2.50;;
82415;SDS011;72058;47.782;10.618;2023-12-20T09:53:23;3.28;;;3.08;;
82415;SDS011;72058;47.782;10.618;2023-12-20T09:55:54;3.85;;;2.72;;
82415;SDS011;72058;47.782;10.618;2023-12-20T09:58:23;3.15;;;2.90;;
82415;SDS011;72058;47.782;10.618;2023-12-20T10:00:48;2.53;;;2.33;;
82415;SDS011;72058;47.782;10.618;2023-12-20T10:03:14;3.25;;;3.05;;
82415;SDS011;72058;47.782;10.618;2023-12-20T10:05:40;3.38;;;3.15;;
82415;SDS011;72058;47.782;10.618;2023-12-20T10:08:08;3.78;;;3.47;;
82415;SDS011;72058;47.782;10.618;2023-12-20T10:10:33;3.47;;;3.27;;
82415;SDS011;72058;47.782;10.618;2023-12-20T10:13:05;2.90;;;2.57;;
82415;SDS011;72058;47.782;10.618;2023-12-20T10:18:01;3.35;;;3.00;;
82415;SDS011;72058;47.782;10.618;2023-12-20T10:20:27;2.85;;;2.65;;
82415;SDS011;72058;47.782;10.618;2023-12-20T10:22:57;3.47;;;3.28;;
82415;SDS011;72058;47.782;10.618;2023-12-20T10:25:23;3.13;;;2.92;;
82415;SDS011;72058;47.782;10.618;2023-12-20T10:27:49;2.92;;;2.72;;
82415;SDS011;72058;47.782;10.618;2023-12-20T10:30:16;3.00;;;2.75;;
82415;SDS011;72058;47.782;10.618;2023-12-20T10:32:41;3.15;;;2.88;;
82415;SDS011;72058;47.782;10.618;2023-12-20T10:35:08;3.15;;;2.95;;
82415;SDS011;72058;47.782;10.618;2023-12-20T10:37:37;3.13;;;2.92;;
82415;SDS011;72058;47.782;10.618;2023-12-20T10:40:03;3.55;;;3.35;;
82415;SDS011;72058;47.782;10.618;2023-12-20T10:42:30;3.42;;;3.22;;
82415;SDS011;72058;47.782;10.618;2023-12-20T10:44:58;2.45;;;2.25;;
82415;SDS011;72058;47.782;10.618;2023-12-20T10:47:25;2.25;;;2.05;;
82415;SDS011;72058;47.782;10.618;2023-12-20T10:49:51;1.92;;;1.80;;
82415;SDS011;72058;47.782;10.618;2023-12-20T10:52:17;3.03;;;2.83;;
82415;SDS011;72058;47.782;10.618;2023-12-20T10:54:43;3.22;;;2.90;;
82415;SDS011;72058;47.782;10.618;2023-12-20T10:57:09;3.67;;;2.47;;
82415;SDS011;72058;47.782;10.618;2023-12-20T10:59:36;2.22;;;2.03;;
82415;SDS011;72058;47.782;10.618;2023-12-20T11:02:03;2.28;;;2.08;;
82415;SDS011;72058;47.782;10.618;2023-12-20T11:07:23;3.00;;;2.80;;
82415;SDS011;72058;47.782;10.618;2023-12-20T11:10:03;2.55;;;2.35;;
82415;SDS011;72058;47.782;10.618;2023-12-20T11:12:39;2.88;;;2.67;;
82415;SDS011;72058;47.782;10.618;2023-12-20T11:15:12;1.80;;;1.60;;
82415;SDS011;72058;47.782;10.618;2023-12-20T11:20:05;2.30;;;2.20;;
82415;SDS011;72058;47.782;10.618;2023-12-20T11:22:33;2.35;;;2.20;;
82415;SDS011;72058;47.782;10.618;2023-12-20T11:25:06;2.75;;;2.65;;
82415;SDS011;72058;47.782;10.618;2023-12-20T11:27:47;3.03;;;2.75;;
82415;SDS011;72058;47.782;10.618;2023-12-20T11:30:47;2.92;;;2.72;;
82415;SDS011;72058;47.782;10.618;2023-12-20T11:33:16;2.80;;;2.60;;
82415;SDS011;72058;47.782;10.618;2023-12-20T11:35:42;2.58;;;2.38;;
82415;SDS011;72058;47.782;10.618;2023-12-20T11:38:09;1.95;;;1.85;;
82415;SDS011;72058;47.782;10.618;2023-12-20T11:40:35;3.30;;;3.00;;
82415;SDS011;72058;47.782;10.618;2023-12-20T11:43:01;3.28;;;3.08;;
82415;SDS011;72058;47.782;10.618;2023-12-20T11:45:27;2.83;;;2.63;;
82415;SDS011;72058;47.782;10.618;2023-12-20T11:47:53;3.40;;;3.15;;
82415;SDS011;72058;47.782;10.618;2023-12-20T11:50:19;2.92;;;2.72;;
82415;SDS011;72058;47.782;10.618;2023-12-20T11:52:46;3.13;;;2.83;;
82415;SDS011;72058;47.782;10.618;2023-12-20T11:55:11;2.22;;;1.90;;
82415;SDS011;72058;47.782;10.618;2023-12-20T11:57:37;2.97;;;2.78;;
82415;SDS011;72058;47.782;10.618;2023-12-20T12:00:03;2.85;;;2.55;;
82415;SDS011;72058;47.782;10.618;2023-12-20T12:02:30;3.42;;;3.22;;
82415;SDS011;72058;47.782;10.618;2023-12-20T12:04:55;3.53;;;3.33;;
82415;SDS011;72058;47.782;10.618;2023-12-20T12:07:21;4.57;;;4.28;;
82415;SDS011;72058;47.782;10.618;2023-12-20T12:09:47;2.47;;;2.10;;
82415;SDS011;72058;47.782;10.618;2023-12-20T12:12:13;4.22;;;3.92;;
82415;SDS011;72058;47.782;10.618;2023-12-20T12:14:38;4.60;;;4.20;;
82415;SDS011;72058;47.782;10.618;2023-12-20T12:19:35;5.53;;;5.10;;
82415;SDS011;72058;47.782;10.618;2023-12-20T12:22:05;3.92;;;3.63;;
82415;SDS011;72058;47.782;10.618;2023-12-20T12:24:36;4.80;;;4.40;;
82415;SDS011;72058;47.782;10.618;2023-12-20T12:27:02;4.57;;;4.18;;
82415;SDS011;72058;47.782;10.618;2023-12-20T12:29:28;4.05;;;3.75;;
82415;SDS011;72058;47.782;10.618;2023-12-20T12:31:54;4.80;;;4.45;;
82415;SDS011;72058;47.782;10.618;2023-12-20T12:34:20;4.53;;;4.13;;
82415;SDS011;72058;47.782;10.618;2023-12-20T12:36:45;4.72;;;4.43;;
82415;SDS011;72058;47.782;10.618;2023-12-20T12:39:17;3.38;;;3.00;;
82415;SDS011;72058;47.782;10.618;2023-12-20T12:41:43;4.57;;;4.28;;
82415;SDS011;72058;47.782;10.618;2023-12-20T12:44:08;4.63;;;4.33;;
82415;SDS011;72058;47.782;10.618;2023-12-20T12:46:34;4.00;;;3.60;;
82415;SDS011;72058;47.782;10.618;2023-12-20T12:48:59;4.10;;;3.80;;
82415;SDS011;72058;47.782;10.618;2023-12-20T12:51:25;4.20;;;3.80;;
82415;SDS011;72058;47.782;10.618;2023-12-20T12:53:50;4.05;;;3.65;;
82415;SDS011;72058;47.782;10.618;2023-12-20T12:56:16;3.50;;;3.20;;
82415;SDS011;72058;47.782;10.618;2023-12-20T12:58:42;4.32;;;4.03;;
82415;SDS011;72058;47.782;10.618;2023-12-20T13:01:07;3.67;;;3.10;;
82415;SDS011;72058;47.782;10.618;2023-12-20T13:03:33;3.50;;;3.20;;
82415;SDS011;72058;47.782;10.618;2023-12-20T13:05:59;3.78;;;3.47;;
82415;SDS011;72058;47.782;10.618;2023-12-20T13:08:25;3.95;;;3.55;;
82415;SDS011;72058;47.782;10.618;2023-12-20T13:10:50;4.25;;;3.95;;
82415;SDS011;72058;47.782;10.618;2023-12-20T13:13:15;3.23;;;2.93;;
82415;SDS011;72058;47.782;10.618;2023-12-20T13:15:41;3.72;;;3.53;;
82415;SDS011;72058;47.782;10.618;2023-12-20T13:18:07;2.97;;;2.72;;
82415;SDS011;72058;47.782;10.618;2023-12-20T13:20:32;3.72;;;3.42;;
82415;SDS011;72058;47.782;10.618;2023-12-20T13:22:58;4.13;;;3.83;;
82415;SDS011;72058;47.782;10.618;2023-12-20T13:25:23;3.67;;;3.38;;
82415;SDS011;72058;47.782;10.618;2023-12-20T13:27:49;4.00;;;3.70;;
82415;SDS011;72058;47.782;10.618;2023-12-20T13:30:15;3.72;;;3.42;;
82415;SDS011;72058;47.782;10.618;2023-12-20T13:32:42;4.38;;;3.97;;
82415;SDS011;72058;47.782;10.618;2023-12-20T13:35:07;4.30;;;4.00;;
82415;SDS011;72058;47.782;10.618;2023-12-20T13:37:33;3.30;;;3.00;;
82415;SDS011;72058;47.782;10.618;2023-12-20T13:39:59;3.80;;;3.50;;
82415;SDS011;72058;47.782;10.618;2023-12-20T13:42:24;3.30;;;3.10;;
82415;SDS011;72058;47.782;10.618;2023-12-20T13:44:52;3.65;;;3.45;;
82415;SDS011;72058;47.782;10.618;2023-12-20T13:47:18;4.40;;;4.10;;
82415;SDS011;72058;47.782;10.618;2023-12-20T13:49:44;3.25;;;3.03;;
82415;SDS011;72058;47.782;10.618;2023-12-20T13:52:10;3.28;;;3.03;;
82415;SDS011;72058;47.782;10.618;2023-12-20T13:54:36;3.28;;;2.97;;
82415;SDS011;72058;47.782;10.618;2023-12-20T13:57:01;3.22;;;2.92;;
82415;SDS011;72058;47.782;10.618;2023-12-20T13:59:28;3.58;;;3.28;;
82415;SDS011;72058;47.782;10.618;2023-12-20T14:01:53;4.43;;;4.07;;
82415;SDS011;72058;47.782;10.618;2023-12-20T14:04:18;4.37;;;4.07;;
82415;SDS011;72058;47.782;10.618;2023-12-20T14:06:44;3.92;;;3.63;;
82415;SDS011;72058;47.782;10.618;2023-12-20T14:09:10;3.33;;;3.03;;
82415;SDS011;72058;47.782;10.618;2023-12-20T14:14:06;3.90;;;3.53;;
82415;SDS011;72058;47.782;10.618;2023-12-20T14:16:34;3.55;;;3.25;;
82415;SDS011;72058;47.782;10.618;2023-12-20T14:19:00;3.78;;;3.58;;
82415;SDS011;72058;47.782;10.618;2023-12-20T14:21:25;3.55;;;3.25;;
82415;SDS011;72058;47.782;10.618;2023-12-20T14:23:50;2.78;;;2.58;;
82415;SDS011;72058;47.782;10.618;2023-12-20T14:26:17;4.05;;;3.75;;
82415;SDS011;72058;47.782;10.618;2023-12-20T14:28:42;3.50;;;3.25;;
82415;SDS011;72058;47.782;10.618;2023-12-20T14:31:08;3.67;;;3.08;;
82415;SDS011;72058;47.782;10.618;2023-12-20T14:33:35;3.72;;;2.80;;
82415;SDS011;72058;47.782;10.618;2023-12-20T14:36:02;3.33;;;3.13;;
82415;SDS011;72058;47.782;10.618;2023-12-20T14:38:30;4.30;;;4.00;;
82415;SDS011;72058;47.782;10.618;2023-12-20T14:40:58;4.20;;;3.80;;
82415;SDS011;72058;47.782;10.618;2023-12-20T14:43:23;5.17;;;4.60;;
82415;SDS011;72058;47.782;10.618;2023-12-20T14:45:48;4.75;;;4.35;;